Gaz Palmyra — 3FCO4 — position and weather

sailwx.info

Track history (hours):
 
Tides and Currents Weather Stations Pressure Air Temp Water Temp Dewpoint Dewpoint Depression Visibility Wind Speed Wind Dir Waves Ship Positions

Gaz Palmyra

Last reported at 2016-Jan-24 09:25 UTC. Time now 2016-Feb-09 11:56 UTC.
Position N 36°46' E 003°06'.
Warning: this ship's position is 16 days out of date.

Length 137 m; draft 8.5 m.

Type: Ship (hazmat cat C). MMSI: 353247000.

Date/timePositionNaut miles runAvg speedWind from/ knotsBaromVisibWave heightAir tempDewpointWater temp
2016-Jan-24 09:25N 36°46' E 003°06'5 2.8
2016-Jan-24 07:33N 36°51' E 003°05'10 9.2
2016-Jan-24 06:30N 36°57' E 002°55'9 9.9
2016-Jan-24 05:33N 36°56' E 002°44'1010.0
2016-Jan-24 04:33N 36°55' E 002°31'31 9.5
2016-Jan-24 01:19N 36°51' E 001°53'910.3
2016-Jan-24 00:28N 36°49' E 001°42'1010.8
2016-Jan-23 23:33N 36°47' E 001°30'1110.8
2016-Jan-23 22:30N 36°46' E 001°16'1010.7
2016-Jan-23 21:33N 36°44' E 001°03'1010.3
2016-Jan-23 20:33N 36°40' E 000°51'1111.0
2016-Jan-23 19:33N 36°35' E 000°39'1211.1
2016-Jan-23 18:28N 36°28' E 000°28'1111.6
2016-Jan-23 17:33N 36°19' E 000°19'113 2.2
2016-Jan-21 14:24N 36°12' W 002°01'1011.4
2016-Jan-21 13:32N 36°11' W 002°13'14111.8
2016-Jan-21 01:33N 36°05' W 005°08'1111.4
2016-Jan-21 00:33N 36°05' W 005°22'3 2.6
2016-Jan-20 23:31N 36°06' W 005°25'0 0.0
2016-Jan-20 22:22N 36°06' W 005°25'0 0.0
2016-Jan-20 21:22N 36°06' W 005°25'0 0.0
2016-Jan-20 20:31N 36°06' W 005°25'0 0.0
2016-Jan-20 19:31N 36°06' W 005°25'0 0.0
2016-Jan-20 18:13N 36°06' W 005°25'0 0.0
2016-Jan-20 17:31N 36°06' W 005°24'0 0.0
2016-Jan-20 16:31N 36°06' W 005°25'0 0.0
2016-Jan-20 15:25N 36°06' W 005°25'0 0.0
2016-Jan-20 14:31N 36°06' W 005°25'0 0.1
2016-Jan-20 13:31N 36°06' W 005°25'0 0.1
2016-Jan-20 10:25N 36°06' W 005°25'0 0.0
2016-Jan-20 07:32N 36°06' W 005°25'2 2.1
2016-Jan-20 06:33N 36°05' W 005°23'9 9.0
2016-Jan-20 05:33N 35°57' W 005°29'1312.7
2016-Jan-20 04:32N 35°54' W 005°44'  
2016-Jan-16 07:29N 35°56' W 005°52'18 9.4
2016-Jan-16 05:33N 35°59' W 005°30'8 8.4
2016-Jan-16 04:34N 36°05' W 005°22'6 6.4
2016-Jan-16 03:33N 36°05' W 005°14'  
Track history (hours):
 
Tides and Currents Weather Stations Pressure Air Temp Water Temp Dewpoint Dewpoint Depression Visibility Wind Speed Wind Dir Waves Ship Positions

Gaz Palmyra

Last reported at 2016-Jan-24 09:25 UTC. Time now 2016-Feb-09 11:56 UTC.
Position N 36°46' E 003°06'.
Warning: this ship's position is 16 days out of date.

Length 137 m; draft 8.5 m.

Type: Ship (hazmat cat C). MMSI: 353247000.

Date/timePositionNaut miles runAvg speedWind from/ knotsBaromVisibWave heightAir tempDewpointWater temp
2016-Jan-24 09:25N 36°46' E 003°06'5 2.8
2016-Jan-24 07:33N 36°51' E 003°05'10 9.2
2016-Jan-24 06:30N 36°57' E 002°55'9 9.9
2016-Jan-24 05:33N 36°56' E 002°44'1010.0
2016-Jan-24 04:33N 36°55' E 002°31'31 9.5
2016-Jan-24 01:19N 36°51' E 001°53'910.3
2016-Jan-24 00:28N 36°49' E 001°42'1010.8
2016-Jan-23 23:33N 36°47' E 001°30'1110.8
2016-Jan-23 22:30N 36°46' E 001°16'1010.7
2016-Jan-23 21:33N 36°44' E 001°03'1010.3
2016-Jan-23 20:33N 36°40' E 000°51'1111.0
2016-Jan-23 19:33N 36°35' E 000°39'1211.1
2016-Jan-23 18:28N 36°28' E 000°28'1111.6
2016-Jan-23 17:33N 36°19' E 000°19'113 2.2
2016-Jan-21 14:24N 36°12' W 002°01'1011.4
2016-Jan-21 13:32N 36°11' W 002°13'14111.8
2016-Jan-21 01:33N 36°05' W 005°08'1111.4
2016-Jan-21 00:33N 36°05' W 005°22'3 2.6
2016-Jan-20 23:31N 36°06' W 005°25'0 0.0
2016-Jan-20 22:22N 36°06' W 005°25'0 0.0
2016-Jan-20 21:22N 36°06' W 005°25'0 0.0
2016-Jan-20 20:31N 36°06' W 005°25'0 0.0
2016-Jan-20 19:31N 36°06' W 005°25'0 0.0
2016-Jan-20 18:13N 36°06' W 005°25'0 0.0
2016-Jan-20 17:31N 36°06' W 005°24'0 0.0
2016-Jan-20 16:31N 36°06' W 005°25'0 0.0
2016-Jan-20 15:25N 36°06' W 005°25'0 0.0
2016-Jan-20 14:31N 36°06' W 005°25'0 0.1
2016-Jan-20 13:31N 36°06' W 005°25'0 0.1
2016-Jan-20 10:25N 36°06' W 005°25'0 0.0
2016-Jan-20 07:32N 36°06' W 005°25'2 2.1
2016-Jan-20 06:33N 36°05' W 005°23'9 9.0
2016-Jan-20 05:33N 35°57' W 005°29'1312.7
2016-Jan-20 04:32N 35°54' W 005°44'  
2016-Jan-16 07:29N 35°56' W 005°52'18 9.4
2016-Jan-16 05:33N 35°59' W 005°30'8 8.4
2016-Jan-16 04:34N 36°05' W 005°22'6 6.4
2016-Jan-16 03:33N 36°05' W 005°14'  

Dump ship's entire track history